createdAt,value
2017-10-05T00:00:35.776Z,100802.05
2017-10-05T00:03:10.659Z,100793.40
2017-10-05T00:05:45.695Z,100768.72
2017-10-05T00:08:20.860Z,100781.40
2017-10-05T00:10:55.309Z,100734.59
2017-10-05T00:13:30.139Z,100742.77
2017-10-05T00:16:04.887Z,100751.45
2017-10-05T00:18:39.705Z,100757.02
2017-10-05T00:21:14.628Z,100741.46
2017-10-05T00:23:49.409Z,100750.45
2017-10-05T00:26:24.089Z,100754.59
2017-10-05T00:28:59.055Z,100741.37
2017-10-05T00:31:33.892Z,100740.06
2017-10-05T00:34:08.644Z,100731.20
2017-10-05T00:36:43.454Z,100742.20
2017-10-05T00:39:18.728Z,100736.76
2017-10-05T00:41:53.480Z,100726.37
2017-10-05T00:44:28.332Z,100728.62
2017-10-05T00:47:03.669Z,100705.38
2017-10-05T00:49:38.251Z,100698.52
2017-10-05T00:52:13.024Z,100697.60
2017-10-05T00:54:47.792Z,100694.32
2017-10-05T00:57:22.048Z,100674.97
2017-10-05T00:59:56.160Z,100660.66
2017-10-05T01:02:31.208Z,100672.81
2017-10-05T01:05:05.937Z,100674.52
2017-10-05T01:07:40.339Z,100657.81
2017-10-05T01:10:15.646Z,100649.06
2017-10-05T01:12:50.584Z,100650.27
2017-10-05T01:15:25.327Z,100641.84
2017-10-05T01:17:59.949Z,100644.94
2017-10-05T01:20:34.814Z,100651.83
2017-10-05T01:23:09.407Z,100648.59
2017-10-05T01:25:44.377Z,100647.09
2017-10-05T01:28:18.893Z,100623.98
2017-10-05T01:30:54.045Z,100620.77
2017-10-05T01:33:28.452Z,100623.21
2017-10-05T01:36:03.839Z,100613.61
2017-10-05T01:38:38.584Z,100600.07
2017-10-05T01:41:13.393Z,100586.57
2017-10-05T01:43:47.829Z,100573.89
2017-10-05T01:46:23.049Z,100575.63
2017-10-05T01:48:57.772Z,100567.64
2017-10-05T01:51:32.820Z,100550.17
2017-10-05T01:54:08.176Z,100551.95
2017-10-05T01:56:43.007Z,100532.67
2017-10-05T01:59:17.939Z,100526.91
2017-10-05T02:01:52.837Z,100528.80
2017-10-05T02:04:27.674Z,100523.77
2017-10-05T02:07:02.446Z,100515.27
2017-10-05T02:09:37.549Z,100516.27
2017-10-05T02:12:12.791Z,100501.48
2017-10-05T02:14:47.964Z,100495.04
2017-10-05T02:17:22.756Z,100487.92
2017-10-05T02:19:57.617Z,100483.73
2017-10-05T02:22:32.865Z,100475.02
2017-10-05T02:25:07.044Z,100477.16
2017-10-05T02:27:42.207Z,100467.94
2017-10-05T02:30:17.144Z,100472.89
2017-10-05T02:32:51.977Z,100473.73
2017-10-05T02:35:27.009Z,100460.50
2017-10-05T02:38:01.761Z,100464.33
2017-10-05T02:40:36.532Z,100450.25
2017-10-05T02:43:11.416Z,100440.11
2017-10-05T02:45:46.641Z,100428.66
2017-10-05T02:48:21.036Z,100423.34
2017-10-05T02:50:55.767Z,100407.66
2017-10-05T02:53:30.619Z,100399.68
2017-10-05T02:56:05.452Z,100403.98
2017-10-05T02:58:40.351Z,100399.06
2017-10-05T03:01:15.208Z,100399.42
2017-10-05T03:03:50.160Z,100376.05
2017-10-05T03:06:25.245Z,100370.07
2017-10-05T03:09:00.205Z,100365.52
2017-10-05T03:11:34.796Z,100356.98
2017-10-05T03:14:09.624Z,100354.94
2017-10-05T03:16:44.367Z,100348.13
2017-10-05T03:19:19.307Z,100337.70
2017-10-05T03:21:54.155Z,100329.43
2017-10-05T03:24:28.896Z,100324.37
2017-10-05T03:27:03.731Z,100304.16
2017-10-05T03:29:38.296Z,100295.99
2017-10-05T03:32:13.416Z,100279.73
2017-10-05T03:34:47.980Z,100262.39
2017-10-05T03:37:22.952Z,100240.81
2017-10-05T03:39:57.776Z,100244.81
2017-10-05T03:42:32.189Z,100243.75
2017-10-05T03:45:06.915Z,100220.94
2017-10-05T03:47:41.881Z,100193.39
2017-10-05T03:50:16.437Z,100199.01
2017-10-05T03:52:51.212Z,100191.00
2017-10-05T03:55:27.036Z,100188.20
2017-10-05T03:58:01.496Z,100153.09
2017-10-05T04:00:36.092Z,100125.89
2017-10-05T04:03:11.201Z,100118.87
2017-10-05T04:05:45.864Z,100094.92
2017-10-05T04:08:20.507Z,100081.23
2017-10-05T04:10:55.156Z,100068.03
2017-10-05T04:13:30.085Z,100060.66
2017-10-05T04:16:05.112Z,100058.67
2017-10-05T04:18:40.229Z,100048.72
2017-10-05T04:21:14.996Z,100051.34
2017-10-05T04:23:50.004Z,100070.81
2017-10-05T04:26:24.770Z,100058.16
2017-10-05T04:28:59.708Z,100045.13
2017-10-05T04:31:34.541Z,100046.23
2017-10-05T04:34:09.729Z,100039.56
2017-10-05T04:36:44.653Z,100025.59
2017-10-05T04:39:19.704Z,100033.97
2017-10-05T04:41:54.184Z,100035.96
2017-10-05T04:44:29.408Z,100030.84
2017-10-05T04:47:04.559Z,100035.65
2017-10-05T04:49:39.192Z,100027.80
2017-10-05T04:52:14.163Z,100028.00
2017-10-05T04:54:49.072Z,100024.94
2017-10-05T04:57:23.849Z,100016.77
2017-10-05T04:59:58.552Z,100013.72
2017-10-05T05:02:33.032Z,100014.36
2017-10-05T05:05:07.969Z,100001.93
2017-10-05T05:07:42.683Z,100012.65
2017-10-05T05:10:17.398Z,99997.73
2017-10-05T05:12:51.938Z,99988.92
2017-10-05T05:15:26.745Z,99986.11
2017-10-05T05:18:01.569Z,99962.42
2017-10-05T05:20:36.327Z,99949.21
2017-10-05T05:23:11.121Z,99943.45
2017-10-05T05:25:45.933Z,99948.22
2017-10-05T05:28:20.596Z,99944.17
2017-10-05T05:30:55.883Z,99926.19
2017-10-05T05:33:30.663Z,99929.88
2017-10-05T05:36:05.237Z,99913.93
2017-10-05T05:38:40.508Z,99898.05
2017-10-05T05:41:15.500Z,99901.84
2017-10-05T05:43:50.356Z,99888.44
2017-10-05T05:46:25.083Z,99879.42
2017-10-05T05:49:00.149Z,99880.77
2017-10-05T05:51:35.020Z,99875.73
2017-10-05T05:54:09.799Z,99871.67
2017-10-05T05:56:43.975Z,99864.78
2017-10-05T05:59:18.447Z,99855.84
2017-10-05T06:01:52.660Z,99843.02
2017-10-05T06:04:27.398Z,99845.05
2017-10-05T06:07:02.123Z,99826.55
2017-10-05T06:09:37.035Z,99813.48
2017-10-05T06:12:12.121Z,99794.84
2017-10-05T06:14:46.997Z,99819.34
2017-10-05T06:17:21.928Z,99801.17
2017-10-05T06:19:56.676Z,99778.09
2017-10-05T06:22:31.480Z,99777.09
2017-10-05T06:25:05.959Z,99767.59
2017-10-05T06:27:40.911Z,99764.19
2017-10-05T06:30:15.564Z,99770.00
2017-10-05T06:32:50.453Z,99759.28
2017-10-05T06:35:25.166Z,99760.04
2017-10-05T06:37:59.981Z,99760.13
2017-10-05T06:40:35.000Z,99765.88
2017-10-05T06:43:09.604Z,99755.53
2017-10-05T06:45:44.340Z,99762.66
2017-10-05T06:48:19.369Z,99753.92
2017-10-05T06:50:53.986Z,99744.17
2017-10-05T06:53:28.820Z,99730.42
2017-10-05T06:56:03.680Z,99720.61
2017-10-05T06:58:38.623Z,99726.02
2017-10-05T07:01:13.508Z,99703.49
2017-10-05T07:03:48.303Z,99688.64
2017-10-05T07:06:23.160Z,99682.23
2017-10-05T07:08:57.787Z,99676.95
2017-10-05T07:11:32.584Z,99666.69
2017-10-05T07:14:07.204Z,99657.41
2017-10-05T07:16:42.073Z,99646.22
2017-10-05T07:19:16.836Z,99655.46
2017-10-05T07:21:51.690Z,99639.64
2017-10-05T07:24:26.321Z,99639.78
2017-10-05T07:27:01.295Z,99621.33
2017-10-05T07:29:36.055Z,99606.47
2017-10-05T07:32:11.281Z,99607.91
2017-10-05T07:34:46.042Z,99615.31
2017-10-05T07:37:20.928Z,99609.13
2017-10-05T07:39:55.733Z,99605.00
2017-10-05T07:42:30.328Z,99611.00
2017-10-05T07:45:05.160Z,99584.34
2017-10-05T07:47:39.994Z,99606.30
2017-10-05T07:50:15.025Z,99577.23
2017-10-05T07:52:49.768Z,99590.66
2017-10-05T07:55:25.102Z,99576.48
2017-10-05T07:57:59.952Z,99573.84
2017-10-05T08:00:35.013Z,99564.51
2017-10-05T08:03:09.743Z,99549.56
2017-10-05T08:05:44.777Z,99525.20
2017-10-05T08:08:19.720Z,99518.44
2017-10-05T08:10:54.800Z,99525.94
2017-10-05T08:13:30.111Z,99520.70
2017-10-05T08:16:04.890Z,99522.44
2017-10-05T08:18:39.659Z,99510.70
2017-10-05T08:21:14.336Z,99500.73
2017-10-05T08:23:49.240Z,99498.31
2017-10-05T08:26:24.088Z,99498.25
2017-10-05T08:28:59.052Z,99483.89
2017-10-05T08:31:33.661Z,99481.45
2017-10-05T08:34:08.360Z,99475.63
2017-10-05T08:36:43.032Z,99465.17
2017-10-05T08:39:17.563Z,99468.73
2017-10-05T08:41:52.186Z,99462.97
2017-10-05T08:44:26.591Z,99443.63
2017-10-05T08:47:01.300Z,99440.26
2017-10-05T08:49:36.089Z,99419.80
2017-10-05T08:52:10.871Z,99427.67
2017-10-05T08:54:45.600Z,99426.17
2017-10-05T08:57:20.224Z,99404.27
2017-10-05T08:59:54.935Z,99414.50
2017-10-05T09:02:30.280Z,99416.01
2017-10-05T09:05:12.493Z,99405.87
2017-10-05T09:07:47.246Z,99390.98
2017-10-05T09:10:22.168Z,99388.76
2017-10-05T09:12:57.499Z,99375.91
2017-10-05T09:15:32.547Z,99374.62
2017-10-05T09:18:07.403Z,99376.28
2017-10-05T09:20:42.189Z,99393.45
2017-10-05T09:23:16.613Z,99375.19
2017-10-05T09:25:51.788Z,99363.95
2017-10-05T09:28:26.617Z,99356.66
2017-10-05T09:31:01.415Z,99351.98
2017-10-05T09:33:36.324Z,99338.45
2017-10-05T09:36:11.105Z,99338.89
2017-10-05T09:38:45.804Z,99332.98
2017-10-05T09:41:20.641Z,99301.80
2017-10-05T09:43:55.445Z,99323.91
2017-10-05T09:46:30.847Z,99297.79
2017-10-05T09:49:05.539Z,99312.97
2017-10-05T09:51:40.309Z,99294.38
2017-10-05T09:54:15.113Z,99308.05
2017-10-05T09:56:49.745Z,99294.65
2017-10-05T09:59:24.632Z,99278.76
2017-10-05T10:01:59.489Z,99262.53
2017-10-05T10:04:34.144Z,99282.44
2017-10-05T10:07:09.000Z,99278.16
2017-10-05T10:09:44.099Z,99262.33
2017-10-05T10:12:19.271Z,99272.31
2017-10-05T10:14:54.058Z,99265.63
2017-10-05T10:17:28.884Z,99317.45
2017-10-05T10:20:03.544Z,99288.03
2017-10-05T10:22:38.672Z,99289.15
2017-10-05T10:25:13.156Z,99285.83
2017-10-05T10:27:47.816Z,99284.64
2017-10-05T10:30:22.341Z,99267.39
2017-10-05T10:32:57.104Z,99268.16
2017-10-05T10:35:31.859Z,99267.63
2017-10-05T10:38:06.829Z,99290.95
2017-10-05T10:40:41.448Z,99288.81
2017-10-05T10:43:15.992Z,99317.45
2017-10-05T10:45:50.941Z,99324.45
2017-10-05T10:48:25.632Z,99316.06
2017-10-05T10:51:00.419Z,99364.59
2017-10-05T10:53:35.192Z,99368.77
2017-10-05T10:56:09.985Z,99405.78
2017-10-05T10:58:44.748Z,99454.91
2017-10-05T11:01:19.509Z,99477.43
2017-10-05T11:03:54.104Z,99525.08
2017-10-05T11:06:28.783Z,99529.33
2017-10-05T11:09:03.095Z,99547.94
2017-10-05T11:11:38.093Z,99565.34
2017-10-05T11:14:13.025Z,99595.13
2017-10-05T11:16:47.916Z,99596.02
2017-10-05T11:19:22.457Z,99628.48
2017-10-05T11:21:57.156Z,99627.17
2017-10-05T11:24:31.832Z,99662.80
2017-10-05T11:27:06.485Z,99683.63
2017-10-05T11:29:41.221Z,99685.73
2017-10-05T11:32:15.944Z,99710.48
2017-10-05T11:34:51.277Z,99729.72
2017-10-05T11:37:26.047Z,99761.36
2017-10-05T11:40:00.803Z,99773.20
2017-10-05T11:42:35.496Z,99777.56
2017-10-05T11:45:10.912Z,99801.83
2017-10-05T11:47:46.035Z,99815.88
2017-10-05T11:50:21.111Z,99821.19
2017-10-05T11:52:56.415Z,99819.52
2017-10-05T11:55:31.171Z,99831.80
2017-10-05T11:58:06.104Z,99857.64
2017-10-05T12:00:40.833Z,99854.16
2017-10-05T12:03:15.584Z,99866.77
2017-10-05T12:05:50.283Z,99885.37
2017-10-05T12:08:24.883Z,99883.92
2017-10-05T12:10:59.730Z,99897.64
2017-10-05T12:13:34.572Z,99900.13
2017-10-05T12:16:09.376Z,99903.41
2017-10-05T12:18:44.325Z,99921.75
2017-10-05T12:21:19.392Z,99931.15
2017-10-05T12:23:53.925Z,99954.25
2017-10-05T12:26:28.844Z,99953.81
2017-10-05T12:29:03.706Z,99975.83
2017-10-05T12:31:38.677Z,99981.43
2017-10-05T12:34:13.936Z,100010.16
2017-10-05T12:36:48.818Z,100023.63
2017-10-05T12:39:23.604Z,100030.95
2017-10-05T12:41:58.371Z,100037.37
2017-10-05T12:44:33.096Z,100054.78
2017-10-05T12:47:07.966Z,100057.33
2017-10-05T12:49:42.459Z,100063.27
2017-10-05T12:52:17.394Z,100072.91
2017-10-05T12:54:52.099Z,100084.99
2017-10-05T12:57:26.942Z,100096.73
2017-10-05T13:00:01.652Z,100086.90
2017-10-05T13:02:36.161Z,100095.88
2017-10-05T13:05:10.813Z,100097.05
2017-10-05T13:07:45.469Z,100105.03
2017-10-05T13:10:20.292Z,100104.17
2017-10-05T13:12:55.184Z,100109.39
2017-10-05T13:15:29.957Z,100118.16
2017-10-05T13:18:04.713Z,100124.83
2017-10-05T13:20:39.432Z,100152.42
2017-10-05T13:23:14.073Z,100163.72
2017-10-05T13:25:48.929Z,100186.82
2017-10-05T13:28:23.872Z,100199.64
2017-10-05T13:30:58.518Z,100207.52
2017-10-05T13:33:33.064Z,100215.17
2017-10-05T13:36:08.104Z,100208.11
2017-10-05T13:38:42.731Z,100208.88
2017-10-05T13:41:17.582Z,100218.20
2017-10-05T13:43:52.197Z,100215.91
2017-10-05T13:46:27.177Z,100226.72
2017-10-05T13:49:01.972Z,100223.66
2017-10-05T13:51:37.648Z,100221.28
2017-10-05T13:54:12.364Z,100224.73
2017-10-05T13:56:47.107Z,100233.13
2017-10-05T13:59:21.707Z,100232.90
2017-10-05T14:01:56.777Z,100229.42
2017-10-05T14:04:31.880Z,100243.28
2017-10-05T14:07:07.295Z,100237.80
2017-10-05T14:09:42.552Z,100246.50
2017-10-05T14:12:17.332Z,100227.36
2017-10-05T14:14:52.134Z,100256.41
2017-10-05T14:17:27.561Z,100262.00
2017-10-05T14:20:02.573Z,100262.55
2017-10-05T14:22:37.240Z,100274.09
2017-10-05T14:25:11.952Z,100276.92
2017-10-05T14:27:46.610Z,100282.08
2017-10-05T14:30:21.205Z,100285.27
2017-10-05T14:32:55.978Z,100286.82
2017-10-05T14:35:30.668Z,100286.84
2017-10-05T14:38:05.444Z,100294.02
2017-10-05T14:40:40.125Z,100312.25
2017-10-05T14:43:14.808Z,100306.67
2017-10-05T14:45:49.476Z,100333.50
2017-10-05T14:48:24.417Z,100323.78
2017-10-05T14:50:58.967Z,100335.65
2017-10-05T14:53:33.807Z,100354.43
2017-10-05T14:56:08.744Z,100351.36
2017-10-05T14:58:43.469Z,100357.27
2017-10-05T15:01:18.272Z,100346.62
2017-10-05T15:03:52.746Z,100353.39
2017-10-05T15:06:27.548Z,100358.27
2017-10-05T15:09:03.397Z,100346.88
2017-10-05T15:11:38.224Z,100372.78
2017-10-05T15:14:13.396Z,100381.86
2017-10-05T15:16:48.523Z,100390.95
2017-10-05T15:19:23.463Z,100387.92
2017-10-05T15:21:58.371Z,100398.05
2017-10-05T15:24:33.427Z,100403.11
2017-10-05T15:27:08.255Z,100399.92
2017-10-05T15:29:43.110Z,100413.94
2017-10-05T15:32:18.084Z,100414.95
2017-10-05T15:34:53.629Z,100407.68
2017-10-05T15:37:28.168Z,100412.38
2017-10-05T15:40:03.029Z,100418.44
2017-10-05T15:42:37.829Z,100416.08
2017-10-05T15:45:12.547Z,100434.06
2017-10-05T15:47:47.495Z,100428.94
2017-10-05T15:50:22.031Z,100441.52
2017-10-05T15:52:56.841Z,100443.98
2017-10-05T15:55:31.811Z,100423.89
2017-10-05T15:58:06.659Z,100439.23
2017-10-05T16:00:40.848Z,100443.15
2017-10-05T16:03:15.865Z,100443.08
2017-10-05T16:05:50.500Z,100449.59
2017-10-05T16:08:25.332Z,100466.69
2017-10-05T16:11:00.184Z,100456.53
2017-10-05T16:13:35.276Z,100472.12
2017-10-05T16:16:10.012Z,100461.23
2017-10-05T16:18:45.093Z,100464.51
2017-10-05T16:21:19.675Z,100476.33
2017-10-05T16:23:54.366Z,100477.09
2017-10-05T16:26:29.437Z,100484.34
2017-10-05T16:29:03.973Z,100488.17
2017-10-05T16:31:38.915Z,100488.53
2017-10-05T16:34:13.644Z,100489.73
2017-10-05T16:36:48.500Z,100496.39
2017-10-05T16:39:23.597Z,100495.86
2017-10-05T16:41:58.659Z,100502.33
2017-10-05T16:44:33.360Z,100503.36
2017-10-05T16:47:08.376Z,100508.24
2017-10-05T16:49:43.008Z,100511.57
2017-10-05T16:52:17.764Z,100516.69
2017-10-05T16:54:52.544Z,100511.61
2017-10-05T16:57:27.329Z,100522.41
2017-10-05T17:00:01.937Z,100530.19
2017-10-05T17:02:36.888Z,100527.63
2017-10-05T17:05:11.575Z,100536.42
2017-10-05T17:07:46.801Z,100532.45
2017-10-05T17:10:21.965Z,100544.84
2017-10-05T17:12:56.635Z,100536.20
2017-10-05T17:15:31.425Z,100539.29
2017-10-05T17:18:06.332Z,100547.61
2017-10-05T17:20:41.204Z,100556.48
2017-10-05T17:23:16.027Z,100552.53
2017-10-05T17:25:50.779Z,100560.47
2017-10-05T17:28:25.746Z,100560.00
2017-10-05T17:31:00.623Z,100567.06
2017-10-05T17:33:35.601Z,100574.41
2017-10-05T17:36:09.879Z,100569.23
2017-10-05T17:38:45.001Z,100585.25
2017-10-05T17:41:19.975Z,100587.14
2017-10-05T17:43:54.740Z,100590.67
2017-10-05T17:46:29.712Z,100599.73
2017-10-05T17:49:04.868Z,100598.21
2017-10-05T17:51:39.736Z,100606.97
2017-10-05T17:54:14.633Z,100612.34
2017-10-05T17:56:49.515Z,100620.22
2017-10-05T17:59:24.469Z,100628.56
2017-10-05T18:01:58.845Z,100617.77
2017-10-05T18:04:33.597Z,100630.49
2017-10-05T18:07:08.392Z,100630.95
2017-10-05T18:09:43.231Z,100636.57
2017-10-05T18:12:18.086Z,100633.13
2017-10-05T18:14:52.870Z,100641.16
2017-10-05T18:17:27.395Z,100628.50
2017-10-05T18:20:02.347Z,100642.53
2017-10-05T18:22:37.184Z,100653.92
2017-10-05T18:25:12.221Z,100658.50
2017-10-05T18:27:46.738Z,100660.42
2017-10-05T18:30:21.965Z,100655.94
2017-10-05T18:32:56.741Z,100656.17
2017-10-05T18:35:31.423Z,100663.50
2017-10-05T18:38:06.396Z,100661.27
2017-10-05T18:40:41.352Z,100663.36
2017-10-05T18:43:16.162Z,100663.20
2017-10-05T18:45:51.051Z,100659.30
2017-10-05T18:48:25.912Z,100668.67
2017-10-05T18:51:00.345Z,100668.69
2017-10-05T18:53:35.590Z,100679.78
2017-10-05T18:56:10.580Z,100692.53
2017-10-05T18:58:45.388Z,100688.70
2017-10-05T19:01:21.030Z,100688.31
2017-10-05T19:03:55.988Z,100686.06
2017-10-05T19:06:30.936Z,100685.23
2017-10-05T19:09:05.876Z,100680.63
2017-10-05T19:11:40.762Z,100689.08
2017-10-05T19:14:15.200Z,100691.75
2017-10-05T19:16:49.933Z,100696.41
2017-10-05T19:19:24.681Z,100695.36
2017-10-05T19:21:59.405Z,100697.63
2017-10-05T19:24:34.117Z,100698.74
2017-10-05T19:27:09.026Z,100691.77
2017-10-05T19:29:44.392Z,100692.50
2017-10-05T19:32:19.124Z,100694.46
2017-10-05T19:34:53.972Z,100700.23
2017-10-05T19:37:28.685Z,100702.69
2017-10-05T19:40:03.451Z,100707.65
2017-10-05T19:42:38.485Z,100698.45
2017-10-05T19:45:13.598Z,100707.41
2017-10-05T19:47:48.569Z,100701.41
2017-10-05T19:50:23.892Z,100704.11
2017-10-05T19:52:58.601Z,100707.55
2017-10-05T19:55:34.908Z,100716.11
2017-10-05T20:01:07.536Z,100711.66
2017-10-05T20:03:42.401Z,100712.40
2017-10-05T20:06:17.242Z,100721.94
2017-10-05T20:08:53.681Z,100715.26
2017-10-05T20:11:28.128Z,100725.57
2017-10-05T20:14:05.649Z,100724.66
2017-10-05T20:16:40.789Z,100721.65
2017-10-05T20:19:21.308Z,100724.72
2017-10-05T20:22:06.767Z,100715.15
2017-10-05T20:38:03.516Z,100714.70
2017-10-05T20:40:38.485Z,100727.16
2017-10-05T20:43:13.442Z,100725.08
2017-10-05T20:45:48.239Z,100727.41
2017-10-05T20:48:22.826Z,100726.16
2017-10-05T20:50:57.529Z,100730.09
2017-10-05T20:53:32.404Z,100736.02
2017-10-05T20:56:07.169Z,100736.77
2017-10-05T20:58:42.018Z,100732.30
2017-10-05T21:01:16.887Z,100724.33
2017-10-05T21:03:51.669Z,100739.09
2017-10-05T21:06:26.421Z,100735.95
2017-10-05T21:09:01.150Z,100735.72
2017-10-05T21:11:35.783Z,100729.21
2017-10-05T21:14:10.462Z,100738.71
2017-10-05T21:16:45.310Z,100732.98
2017-10-05T21:19:20.108Z,100742.47
2017-10-05T21:21:54.941Z,100739.85
2017-10-05T21:24:30.121Z,100748.60
2017-10-05T21:27:05.516Z,100741.31
2017-10-05T21:29:40.629Z,100748.83
2017-10-05T21:32:15.373Z,100747.92
2017-10-05T21:34:50.252Z,100753.00
2017-10-05T21:37:24.971Z,100751.12
2017-10-05T21:39:59.625Z,100745.14
2017-10-05T21:42:34.322Z,100751.02
2017-10-05T21:45:09.369Z,100745.23
2017-10-05T21:47:43.797Z,100748.87
2017-10-05T21:50:18.929Z,100758.20
2017-10-05T21:52:53.324Z,100758.80
2017-10-05T21:55:27.968Z,100747.29
2017-10-05T21:58:02.697Z,100760.36
2017-10-05T22:00:37.644Z,100753.31
2017-10-05T22:03:12.669Z,100753.31
2017-10-05T22:05:47.840Z,100751.95
2017-10-05T22:08:23.209Z,100752.61
2017-10-05T22:10:57.793Z,100753.75
2017-10-05T22:13:32.336Z,100757.87
2017-10-05T22:16:07.000Z,100759.72
2017-10-05T22:18:41.708Z,100757.83
2017-10-05T22:21:16.537Z,100757.05
2017-10-05T22:23:51.216Z,100752.98
2017-10-05T22:26:26.081Z,100752.13
2017-10-05T22:29:00.743Z,100750.16
2017-10-05T22:31:35.633Z,100750.39
2017-10-05T22:34:11.558Z,100751.52
2017-10-05T22:36:46.355Z,100746.38
2017-10-05T22:39:21.037Z,100757.35
2017-10-05T22:41:55.793Z,100752.53
2017-10-05T22:44:30.701Z,100754.11
2017-10-05T22:47:05.397Z,100750.73
2017-10-05T22:49:40.296Z,100752.13
2017-10-05T22:52:15.157Z,100756.52
2017-10-05T22:54:50.004Z,100751.22
2017-10-05T22:57:24.669Z,100754.66
2017-10-05T22:59:59.407Z,100753.78
2017-10-05T23:02:34.217Z,100749.92
2017-10-05T23:05:08.973Z,100746.25
2017-10-05T23:07:44.042Z,100737.91
2017-10-05T23:10:18.749Z,100743.05
2017-10-05T23:12:53.520Z,100743.72
2017-10-05T23:15:28.234Z,100747.70
2017-10-05T23:18:03.385Z,100743.19
2017-10-05T23:20:37.992Z,100735.59
2017-10-05T23:23:12.526Z,100736.19
2017-10-05T23:25:47.068Z,100757.98
2017-10-05T23:28:21.773Z,100747.94
2017-10-05T23:30:56.513Z,100744.02
2017-10-05T23:33:31.233Z,100736.52
2017-10-05T23:36:05.981Z,100735.92
2017-10-05T23:38:41.624Z,100741.06
2017-10-05T23:41:16.348Z,100740.16
2017-10-05T23:43:51.188Z,100729.30
2017-10-05T23:46:25.954Z,100739.20
2017-10-05T23:49:00.845Z,100732.20
2017-10-05T23:51:35.452Z,100742.09
2017-10-05T23:54:10.085Z,100732.92
2017-10-05T23:56:44.704Z,100724.77
2017-10-05T23:59:19.437Z,100731.02
